sensor_id;sensor_type;location;lat;lon;timestamp;temperature;humidity
27413;DHT22;14871;52.702;5.230;2022-08-18T00:01:08;22.50;99.90
27413;DHT22;14871;52.702;5.230;2022-08-18T00:03:34;22.50;99.90
27413;DHT22;14871;52.702;5.230;2022-08-18T00:06:00;22.50;99.90
27413;DHT22;14871;52.702;5.230;2022-08-18T00:08:26;22.50;99.90
27413;DHT22;14871;52.702;5.230;2022-08-18T00:10:54;22.50;99.90
27413;DHT22;14871;52.702;5.230;2022-08-18T00:13:20;22.50;99.90
27413;DHT22;14871;52.702;5.230;2022-08-18T00:15:45;22.50;99.90
27413;DHT22;14871;52.702;5.230;2022-08-18T00:18:11;22.40;99.90
27413;DHT22;14871;52.702;5.230;2022-08-18T00:20:38;22.40;99.90
27413;DHT22;14871;52.702;5.230;2022-08-18T00:23:04;22.40;99.90
27413;DHT22;14871;52.702;5.230;2022-08-18T00:25:30;22.40;99.90
27413;DHT22;14871;52.702;5.230;2022-08-18T00:27:56;22.40;99.90
27413;DHT22;14871;52.702;5.230;2022-08-18T00:30:21;22.40;99.90
27413;DHT22;14871;52.702;5.230;2022-08-18T00:32:50;22.40;99.90
27413;DHT22;14871;52.702;5.230;2022-08-18T00:35:18;22.40;99.90
27413;DHT22;14871;52.702;5.230;2022-08-18T00:37:45;22.40;99.90
27413;DHT22;14871;52.702;5.230;2022-08-18T00:40:14;22.40;99.90
27413;DHT22;14871;52.702;5.230;2022-08-18T00:42:54;22.40;99.90
27413;DHT22;14871;52.702;5.230;2022-08-18T00:45:23;22.40;99.90
27413;DHT22;14871;52.702;5.230;2022-08-18T00:47:50;22.40;99.90
27413;DHT22;14871;52.702;5.230;2022-08-18T00:53:13;22.40;99.90
27413;DHT22;14871;52.702;5.230;2022-08-18T00:55:41;22.30;99.90
27413;DHT22;14871;52.702;5.230;2022-08-18T00:58:14;22.30;99.90
27413;DHT22;14871;52.702;5.230;2022-08-18T01:00:43;22.40;99.90
27413;DHT22;14871;52.702;5.230;2022-08-18T01:03:12;22.40;99.90
27413;DHT22;14871;52.702;5.230;2022-08-18T01:05:42;22.30;99.90
27413;DHT22;14871;52.702;5.230;2022-08-18T01:08:13;22.30;99.90
27413;DHT22;14871;52.702;5.230;2022-08-18T01:10:40;22.20;99.90
27413;DHT22;14871;52.702;5.230;2022-08-18T01:13:06;22.30;99.90
27413;DHT22;14871;52.702;5.230;2022-08-18T01:15:32;22.30;99.90
27413;DHT22;14871;52.702;5.230;2022-08-18T01:18:00;22.20;99.90
27413;DHT22;14871;52.702;5.230;2022-08-18T01:23:30;22.30;99.90
27413;DHT22;14871;52.702;5.230;2022-08-18T01:25:56;22.30;99.90
27413;DHT22;14871;52.702;5.230;2022-08-18T01:28:38;22.30;99.90
27413;DHT22;14871;52.702;5.230;2022-08-18T01:31:05;22.30;99.90
27413;DHT22;14871;52.702;5.230;2022-08-18T01:33:34;22.20;99.90
27413;DHT22;14871;52.702;5.230;2022-08-18T01:36:14;22.30;99.90
27413;DHT22;14871;52.702;5.230;2022-08-18T01:38:42;22.30;99.90
27413;DHT22;14871;52.702;5.230;2022-08-18T01:41:08;22.30;99.90
27413;DHT22;14871;52.702;5.230;2022-08-18T01:43:34;22.20;99.90
27413;DHT22;14871;52.702;5.230;2022-08-18T01:46:01;22.20;99.90
27413;DHT22;14871;52.702;5.230;2022-08-18T01:48:32;22.20;99.90
27413;DHT22;14871;52.702;5.230;2022-08-18T01:50:59;22.20;99.90
27413;DHT22;14871;52.702;5.230;2022-08-18T01:53:26;22.20;99.90
27413;DHT22;14871;52.702;5.230;2022-08-18T01:55:52;22.20;99.90
27413;DHT22;14871;52.702;5.230;2022-08-18T01:58:18;22.10;99.90
27413;DHT22;14871;52.702;5.230;2022-08-18T02:00:46;22.10;99.90
27413;DHT22;14871;52.702;5.230;2022-08-18T02:03:13;22.10;99.90
27413;DHT22;14871;52.702;5.230;2022-08-18T02:05:44;22.10;99.90
27413;DHT22;14871;52.702;5.230;2022-08-18T02:08:10;22.00;99.90
27413;DHT22;14871;52.702;5.230;2022-08-18T02:10:37;22.00;99.90
27413;DHT22;14871;52.702;5.230;2022-08-18T02:13:03;22.10;99.90
27413;DHT22;14871;52.702;5.230;2022-08-18T02:15:29;22.10;99.90
27413;DHT22;14871;52.702;5.230;2022-08-18T02:17:55;22.10;99.90
27413;DHT22;14871;52.702;5.230;2022-08-18T02:20:21;22.20;99.90
27413;DHT22;14871;52.702;5.230;2022-08-18T02:22:47;22.10;99.90
27413;DHT22;14871;52.702;5.230;2022-08-18T02:25:14;22.20;99.90
27413;DHT22;14871;52.702;5.230;2022-08-18T02:27:40;22.20;99.90
27413;DHT22;14871;52.702;5.230;2022-08-18T02:30:11;22.20;99.90
27413;DHT22;14871;52.702;5.230;2022-08-18T02:32:37;22.20;99.90
27413;DHT22;14871;52.702;5.230;2022-08-18T02:35:04;22.10;99.90
27413;DHT22;14871;52.702;5.230;2022-08-18T02:37:30;22.10;99.90
27413;DHT22;14871;52.702;5.230;2022-08-18T02:39:56;22.20;99.90
27413;DHT22;14871;52.702;5.230;2022-08-18T02:42:22;22.10;99.90
27413;DHT22;14871;52.702;5.230;2022-08-18T02:44:47;22.10;99.90
27413;DHT22;14871;52.702;5.230;2022-08-18T02:47:13;22.10;99.90
27413;DHT22;14871;52.702;5.230;2022-08-18T02:49:39;22.10;99.90
27413;DHT22;14871;52.702;5.230;2022-08-18T02:52:05;22.00;99.90
27413;DHT22;14871;52.702;5.230;2022-08-18T02:54:30;22.00;99.90
27413;DHT22;14871;52.702;5.230;2022-08-18T02:56:56;22.00;99.90
27413;DHT22;14871;52.702;5.230;2022-08-18T02:59:25;21.90;99.90
27413;DHT22;14871;52.702;5.230;2022-08-18T03:01:54;21.80;99.90
27413;DHT22;14871;52.702;5.230;2022-08-18T03:04:26;21.80;99.90
27413;DHT22;14871;52.702;5.230;2022-08-18T03:06:57;21.80;99.90
27413;DHT22;14871;52.702;5.230;2022-08-18T03:09:23;21.80;99.90
27413;DHT22;14871;52.702;5.230;2022-08-18T03:11:48;21.80;99.90
27413;DHT22;14871;52.702;5.230;2022-08-18T03:14:14;21.80;99.90
27413;DHT22;14871;52.702;5.230;2022-08-18T03:16:44;21.70;99.90
27413;DHT22;14871;52.702;5.230;2022-08-18T03:19:10;21.70;99.90
27413;DHT22;14871;52.702;5.230;2022-08-18T03:21:39;21.70;99.90
27413;DHT22;14871;52.702;5.230;2022-08-18T03:24:04;21.70;99.90
27413;DHT22;14871;52.702;5.230;2022-08-18T03:26:31;21.80;99.90
27413;DHT22;14871;52.702;5.230;2022-08-18T03:28:59;21.70;99.90
27413;DHT22;14871;52.702;5.230;2022-08-18T03:31:27;21.80;99.90
27413;DHT22;14871;52.702;5.230;2022-08-18T03:33:53;21.80;99.90
27413;DHT22;14871;52.702;5.230;2022-08-18T03:36:22;21.70;99.90
27413;DHT22;14871;52.702;5.230;2022-08-18T03:38:50;21.70;99.90
27413;DHT22;14871;52.702;5.230;2022-08-18T03:41:18;21.70;99.90
27413;DHT22;14871;52.702;5.230;2022-08-18T03:43:44;21.70;99.90
27413;DHT22;14871;52.702;5.230;2022-08-18T03:46:12;21.70;99.90
27413;DHT22;14871;52.702;5.230;2022-08-18T03:48:39;21.80;99.90
27413;DHT22;14871;52.702;5.230;2022-08-18T03:51:12;21.80;99.90
27413;DHT22;14871;52.702;5.230;2022-08-18T03:53:39;21.90;99.90
27413;DHT22;14871;52.702;5.230;2022-08-18T03:56:11;21.90;99.90
27413;DHT22;14871;52.702;5.230;2022-08-18T03:58:43;21.90;99.90
27413;DHT22;14871;52.702;5.230;2022-08-18T04:01:14;21.80;99.90
27413;DHT22;14871;52.702;5.230;2022-08-18T04:03:42;21.90;99.90
27413;DHT22;14871;52.702;5.230;2022-08-18T04:06:14;21.90;99.90
27413;DHT22;14871;52.702;5.230;2022-08-18T04:08:40;22.00;99.90
27413;DHT22;14871;52.702;5.230;2022-08-18T04:11:06;21.90;99.90
27413;DHT22;14871;52.702;5.230;2022-08-18T04:13:32;21.90;99.90
27413;DHT22;14871;52.702;5.230;2022-08-18T04:16:00;22.00;99.90
27413;DHT22;14871;52.702;5.230;2022-08-18T04:18:26;22.00;99.90
27413;DHT22;14871;52.702;5.230;2022-08-18T04:20:53;21.90;99.90
27413;DHT22;14871;52.702;5.230;2022-08-18T04:23:19;22.00;99.90
27413;DHT22;14871;52.702;5.230;2022-08-18T04:25:45;21.90;99.90
27413;DHT22;14871;52.702;5.230;2022-08-18T04:28:19;21.90;99.90
27413;DHT22;14871;52.702;5.230;2022-08-18T04:30:44;21.90;99.90
27413;DHT22;14871;52.702;5.230;2022-08-18T04:33:10;21.90;99.90
27413;DHT22;14871;52.702;5.230;2022-08-18T04:35:35;21.90;99.90
27413;DHT22;14871;52.702;5.230;2022-08-18T04:38:01;21.90;99.90
27413;DHT22;14871;52.702;5.230;2022-08-18T04:40:27;21.90;99.90
27413;DHT22;14871;52.702;5.230;2022-08-18T04:42:53;21.90;99.90
27413;DHT22;14871;52.702;5.230;2022-08-18T04:45:19;21.80;99.90
27413;DHT22;14871;52.702;5.230;2022-08-18T04:47:44;21.80;99.90
27413;DHT22;14871;52.702;5.230;2022-08-18T04:50:10;21.80;99.90
27413;DHT22;14871;52.702;5.230;2022-08-18T04:52:36;21.80;99.90
27413;DHT22;14871;52.702;5.230;2022-08-18T04:55:20;21.80;99.90
27413;DHT22;14871;52.702;5.230;2022-08-18T04:57:46;21.80;99.90
27413;DHT22;14871;52.702;5.230;2022-08-18T05:00:12;21.70;99.90
27413;DHT22;14871;52.702;5.230;2022-08-18T05:02:38;21.60;99.90
27413;DHT22;14871;52.702;5.230;2022-08-18T05:05:04;21.60;99.90
27413;DHT22;14871;52.702;5.230;2022-08-18T05:07:31;21.60;99.90
27413;DHT22;14871;52.702;5.230;2022-08-18T05:09:56;21.70;99.90
27413;DHT22;14871;52.702;5.230;2022-08-18T05:12:22;21.60;99.90
27413;DHT22;14871;52.702;5.230;2022-08-18T05:14:48;21.60;99.90
27413;DHT22;14871;52.702;5.230;2022-08-18T05:17:14;21.60;99.90
27413;DHT22;14871;52.702;5.230;2022-08-18T05:19:41;21.60;99.90
27413;DHT22;14871;52.702;5.230;2022-08-18T05:22:08;21.60;99.90
27413;DHT22;14871;52.702;5.230;2022-08-18T05:24:35;21.50;99.90
27413;DHT22;14871;52.702;5.230;2022-08-18T05:27:01;21.60;99.90
27413;DHT22;14871;52.702;5.230;2022-08-18T05:29:29;21.60;99.90
27413;DHT22;14871;52.702;5.230;2022-08-18T05:32:01;21.70;99.90
27413;DHT22;14871;52.702;5.230;2022-08-18T05:34:29;21.70;99.90
27413;DHT22;14871;52.702;5.230;2022-08-18T05:40:05;21.80;99.90
27413;DHT22;14871;52.702;5.230;2022-08-18T05:42:36;21.80;99.90
27413;DHT22;14871;52.702;5.230;2022-08-18T05:45:09;21.80;99.90
27413;DHT22;14871;52.702;5.230;2022-08-18T05:47:35;21.90;99.90
27413;DHT22;14871;52.702;5.230;2022-08-18T05:50:10;21.90;99.90
27413;DHT22;14871;52.702;5.230;2022-08-18T05:52:53;21.90;99.90
27413;DHT22;14871;52.702;5.230;2022-08-18T05:55:30;21.90;99.90
27413;DHT22;14871;52.702;5.230;2022-08-18T05:58:24;22.00;99.90
27413;DHT22;14871;52.702;5.230;2022-08-18T06:00:59;21.90;99.90
27413;DHT22;14871;52.702;5.230;2022-08-18T06:03:31;21.90;99.90
27413;DHT22;14871;52.702;5.230;2022-08-18T06:06:04;21.90;99.90
27413;DHT22;14871;52.702;5.230;2022-08-18T06:08:41;21.90;99.90
27413;DHT22;14871;52.702;5.230;2022-08-18T06:11:08;22.00;99.90
27413;DHT22;14871;52.702;5.230;2022-08-18T06:13:41;21.90;99.90
27413;DHT22;14871;52.702;5.230;2022-08-18T06:18:57;22.10;99.90
27413;DHT22;14871;52.702;5.230;2022-08-18T06:27:11;22.30;99.90
27413;DHT22;14871;52.702;5.230;2022-08-18T06:32:32;22.40;99.90
27413;DHT22;14871;52.702;5.230;2022-08-18T06:37:56;22.50;99.90
27413;DHT22;14871;52.702;5.230;2022-08-18T06:40:46;22.50;99.90
27413;DHT22;14871;52.702;5.230;2022-08-18T06:43:14;22.50;99.90
27413;DHT22;14871;52.702;5.230;2022-08-18T06:45:42;22.60;99.90
27413;DHT22;14871;52.702;5.230;2022-08-18T06:48:31;22.60;99.90
27413;DHT22;14871;52.702;5.230;2022-08-18T06:51:03;22.70;99.90
27413;DHT22;14871;52.702;5.230;2022-08-18T06:56:24;22.80;99.90
27413;DHT22;14871;52.702;5.230;2022-08-18T06:58:50;22.80;99.90
27413;DHT22;14871;52.702;5.230;2022-08-18T07:01:21;22.80;99.90
27413;DHT22;14871;52.702;5.230;2022-08-18T07:03:53;22.80;99.90
27413;DHT22;14871;52.702;5.230;2022-08-18T07:08:48;22.80;99.90
27413;DHT22;14871;52.702;5.230;2022-08-18T07:13:44;22.80;99.90
27413;DHT22;14871;52.702;5.230;2022-08-18T07:18:48;22.80;99.90
27413;DHT22;14871;52.702;5.230;2022-08-18T07:21:28;22.70;99.90
27413;DHT22;14871;52.702;5.230;2022-08-18T07:24:05;22.70;99.90
27413;DHT22;14871;52.702;5.230;2022-08-18T07:27:02;22.70;99.90
27413;DHT22;14871;52.702;5.230;2022-08-18T07:29:31;22.70;99.90
27413;DHT22;14871;52.702;5.230;2022-08-18T07:32:00;22.80;99.90
27413;DHT22;14871;52.702;5.230;2022-08-18T07:34:38;22.80;99.90
27413;DHT22;14871;52.702;5.230;2022-08-18T07:37:16;22.80;99.90
27413;DHT22;14871;52.702;5.230;2022-08-18T07:42:23;22.90;99.90
27413;DHT22;14871;52.702;5.230;2022-08-18T07:47:29;23.10;99.90
27413;DHT22;14871;52.702;5.230;2022-08-18T07:49:57;23.10;99.90
27413;DHT22;14871;52.702;5.230;2022-08-18T07:52:35;23.20;99.90
27413;DHT22;14871;52.702;5.230;2022-08-18T07:55:22;23.20;99.90
27413;DHT22;14871;52.702;5.230;2022-08-18T08:00:34;23.50;99.90
27413;DHT22;14871;52.702;5.230;2022-08-18T08:03:24;23.50;99.90
27413;DHT22;14871;52.702;5.230;2022-08-18T08:08:38;23.60;99.90
27413;DHT22;14871;52.702;5.230;2022-08-18T08:16:48;23.80;99.90
27413;DHT22;14871;52.702;5.230;2022-08-18T08:25:18;24.10;99.90
27413;DHT22;14871;52.702;5.230;2022-08-18T08:30:29;24.20;99.90
27413;DHT22;14871;52.702;5.230;2022-08-18T08:33:06;24.20;99.90
27413;DHT22;14871;52.702;5.230;2022-08-18T08:36:06;24.30;99.90
27413;DHT22;14871;52.702;5.230;2022-08-18T08:41:18;24.30;99.90
27413;DHT22;14871;52.702;5.230;2022-08-18T08:44:13;24.40;99.90
27413;DHT22;14871;52.702;5.230;2022-08-18T08:46:53;24.40;99.90
27413;DHT22;14871;52.702;5.230;2022-08-18T08:49:32;24.40;99.90
27413;DHT22;14871;52.702;5.230;2022-08-18T08:52:26;24.40;99.90
27413;DHT22;14871;52.702;5.230;2022-08-18T08:55:04;24.40;99.90
27413;DHT22;14871;52.702;5.230;2022-08-18T08:57:35;24.30;99.90
27413;DHT22;14871;52.702;5.230;2022-08-18T09:00:06;24.30;99.90
27413;DHT22;14871;52.702;5.230;2022-08-18T09:05:28;24.10;99.90
27413;DHT22;14871;52.702;5.230;2022-08-18T09:13:45;24.00;99.90
27413;DHT22;14871;52.702;5.230;2022-08-18T09:19:34;23.90;99.90
27413;DHT22;14871;52.702;5.230;2022-08-18T09:22:18;23.80;99.90
27413;DHT22;14871;52.702;5.230;2022-08-18T09:24:52;23.70;99.90
27413;DHT22;14871;52.702;5.230;2022-08-18T09:27:42;23.70;99.90
27413;DHT22;14871;52.702;5.230;2022-08-18T09:33:21;23.60;99.90
27413;DHT22;14871;52.702;5.230;2022-08-18T09:38:24;23.70;99.90
27413;DHT22;14871;52.702;5.230;2022-08-18T09:41:26;23.70;99.90
27413;DHT22;14871;52.702;5.230;2022-08-18T09:44:13;23.80;99.90
27413;DHT22;14871;52.702;5.230;2022-08-18T09:49:37;24.10;99.90
27413;DHT22;14871;52.702;5.230;2022-08-18T09:57:26;24.60;99.90
27413;DHT22;14871;52.702;5.230;2022-08-18T10:10:30;24.90;99.90
27413;DHT22;14871;52.702;5.230;2022-08-18T10:18:38;25.20;99.90
27413;DHT22;14871;52.702;5.230;2022-08-18T10:21:13;25.20;99.90
27413;DHT22;14871;52.702;5.230;2022-08-18T10:23:52;25.20;99.90
27413;DHT22;14871;52.702;5.230;2022-08-18T10:29:07;25.20;99.90
27413;DHT22;14871;52.702;5.230;2022-08-18T10:34:46;25.30;99.90
27413;DHT22;14871;52.702;5.230;2022-08-18T10:37:22;25.30;99.90
27413;DHT22;14871;52.702;5.230;2022-08-18T10:39:55;25.30;99.90
27413;DHT22;14871;52.702;5.230;2022-08-18T10:42:50;25.30;99.90
27413;DHT22;14871;52.702;5.230;2022-08-18T10:45:37;25.40;99.90
27413;DHT22;14871;52.702;5.230;2022-08-18T10:50:31;25.50;99.90
27413;DHT22;14871;52.702;5.230;2022-08-18T10:53:21;25.70;99.90
27413;DHT22;14871;52.702;5.230;2022-08-18T11:06:52;26.40;99.10
27413;DHT22;14871;52.702;5.230;2022-08-18T11:09:26;26.50;98.60
27413;DHT22;14871;52.702;5.230;2022-08-18T11:11:54;26.60;98.60
27413;DHT22;14871;52.702;5.230;2022-08-18T11:14:46;26.70;98.60
27413;DHT22;14871;52.702;5.230;2022-08-18T11:19:45;26.80;97.90
27413;DHT22;14871;52.702;5.230;2022-08-18T11:22:29;27.10;97.70
27413;DHT22;14871;52.702;5.230;2022-08-18T11:24:55;27.40;97.50
27413;DHT22;14871;52.702;5.230;2022-08-18T11:27:23;27.60;97.40
27413;DHT22;14871;52.702;5.230;2022-08-18T11:29:50;27.80;96.60
27413;DHT22;14871;52.702;5.230;2022-08-18T11:38:03;28.20;95.30
27413;DHT22;14871;52.702;5.230;2022-08-18T11:40:31;28.40;94.60
27413;DHT22;14871;52.702;5.230;2022-08-18T11:46:26;28.80;94.30
27413;DHT22;14871;52.702;5.230;2022-08-18T11:48:52;29.00;94.10
27413;DHT22;14871;52.702;5.230;2022-08-18T11:51:21;29.20;92.60
27413;DHT22;14871;52.702;5.230;2022-08-18T12:01:37;29.80;92.20
27413;DHT22;14871;52.702;5.230;2022-08-18T12:06:39;30.10;89.10
27413;DHT22;14871;52.702;5.230;2022-08-18T12:09:21;29.90;87.60
27413;DHT22;14871;52.702;5.230;2022-08-18T12:11:55;30.00;88.80
27413;DHT22;14871;52.702;5.230;2022-08-18T12:14:26;30.00;83.20
27413;DHT22;14871;52.702;5.230;2022-08-18T12:16:53;30.10;87.00
27413;DHT22;14871;52.702;5.230;2022-08-18T12:19:20;30.10;86.20
27413;DHT22;14871;52.702;5.230;2022-08-18T12:21:52;30.30;85.70
27413;DHT22;14871;52.702;5.230;2022-08-18T12:24:23;30.20;84.20
27413;DHT22;14871;52.702;5.230;2022-08-18T12:26:50;30.20;86.50
27413;DHT22;14871;52.702;5.230;2022-08-18T12:29:17;30.30;84.00
27413;DHT22;14871;52.702;5.230;2022-08-18T12:31:44;30.40;84.70
27413;DHT22;14871;52.702;5.230;2022-08-18T12:34:09;30.40;83.30
27413;DHT22;14871;52.702;5.230;2022-08-18T12:36:35;30.40;83.10
27413;DHT22;14871;52.702;5.230;2022-08-18T12:39:02;30.40;83.60
27413;DHT22;14871;52.702;5.230;2022-08-18T12:41:27;30.30;82.50
27413;DHT22;14871;52.702;5.230;2022-08-18T12:43:53;30.40;82.80
27413;DHT22;14871;52.702;5.230;2022-08-18T12:46:19;30.50;84.10
27413;DHT22;14871;52.702;5.230;2022-08-18T12:48:45;30.60;83.90
27413;DHT22;14871;52.702;5.230;2022-08-18T12:51:11;30.50;83.80
27413;DHT22;14871;52.702;5.230;2022-08-18T12:53:38;30.50;83.70
27413;DHT22;14871;52.702;5.230;2022-08-18T12:56:27;30.50;83.60
27413;DHT22;14871;52.702;5.230;2022-08-18T12:59:00;30.60;82.00
27413;DHT22;14871;52.702;5.230;2022-08-18T13:01:26;30.70;83.80
27413;DHT22;14871;52.702;5.230;2022-08-18T13:03:53;30.70;84.40
27413;DHT22;14871;52.702;5.230;2022-08-18T13:06:24;30.70;82.80
27413;DHT22;14871;52.702;5.230;2022-08-18T13:08:50;30.50;81.90
27413;DHT22;14871;52.702;5.230;2022-08-18T13:11:18;30.40;82.30
27413;DHT22;14871;52.702;5.230;2022-08-18T13:13:44;30.40;81.90
27413;DHT22;14871;52.702;5.230;2022-08-18T13:16:11;30.40;81.50
27413;DHT22;14871;52.702;5.230;2022-08-18T13:18:38;30.40;81.30
27413;DHT22;14871;52.702;5.230;2022-08-18T13:21:11;30.50;80.90
27413;DHT22;14871;52.702;5.230;2022-08-18T13:23:38;30.50;80.30
27413;DHT22;14871;52.702;5.230;2022-08-18T13:26:06;30.70;82.30
27413;DHT22;14871;52.702;5.230;2022-08-18T13:28:34;30.60;81.10
27413;DHT22;14871;52.702;5.230;2022-08-18T13:31:00;30.50;80.90
27413;DHT22;14871;52.702;5.230;2022-08-18T13:33:27;30.50;81.30
27413;DHT22;14871;52.702;5.230;2022-08-18T13:35:53;30.30;79.90
27413;DHT22;14871;52.702;5.230;2022-08-18T13:38:19;30.20;79.10
27413;DHT22;14871;52.702;5.230;2022-08-18T13:40:48;30.20;80.60
27413;DHT22;14871;52.702;5.230;2022-08-18T13:43:16;30.00;79.80
27413;DHT22;14871;52.702;5.230;2022-08-18T13:45:41;29.80;80.10
27413;DHT22;14871;52.702;5.230;2022-08-18T13:48:09;29.80;81.10
27413;DHT22;14871;52.702;5.230;2022-08-18T13:50:35;29.80;82.00
27413;DHT22;14871;52.702;5.230;2022-08-18T13:53:06;29.80;82.80
27413;DHT22;14871;52.702;5.230;2022-08-18T13:55:32;29.70;81.50
27413;DHT22;14871;52.702;5.230;2022-08-18T13:57:58;29.80;82.60
27413;DHT22;14871;52.702;5.230;2022-08-18T14:00:24;29.70;83.10
27413;DHT22;14871;52.702;5.230;2022-08-18T14:02:50;29.70;82.70
27413;DHT22;14871;52.702;5.230;2022-08-18T14:05:20;29.70;82.90
27413;DHT22;14871;52.702;5.230;2022-08-18T14:07:46;29.60;82.00
27413;DHT22;14871;52.702;5.230;2022-08-18T14:10:12;29.50;82.10
27413;DHT22;14871;52.702;5.230;2022-08-18T14:12:40;29.50;82.60
27413;DHT22;14871;52.702;5.230;2022-08-18T14:15:09;29.30;82.80
27413;DHT22;14871;52.702;5.230;2022-08-18T14:17:35;29.40;82.30
27413;DHT22;14871;52.702;5.230;2022-08-18T14:20:01;29.40;82.20
27413;DHT22;14871;52.702;5.230;2022-08-18T14:22:45;29.30;81.90
27413;DHT22;14871;52.702;5.230;2022-08-18T14:25:30;29.30;82.80
27413;DHT22;14871;52.702;5.230;2022-08-18T14:28:14;29.20;83.20
27413;DHT22;14871;52.702;5.230;2022-08-18T14:30:43;29.20;84.00
27413;DHT22;14871;52.702;5.230;2022-08-18T14:33:09;29.10;84.10
27413;DHT22;14871;52.702;5.230;2022-08-18T14:35:35;29.10;84.10
27413;DHT22;14871;52.702;5.230;2022-08-18T14:38:02;29.20;83.10
27413;DHT22;14871;52.702;5.230;2022-08-18T14:40:28;29.30;83.30
27413;DHT22;14871;52.702;5.230;2022-08-18T14:42:54;29.30;83.50
27413;DHT22;14871;52.702;5.230;2022-08-18T14:45:20;29.40;83.70
27413;DHT22;14871;52.702;5.230;2022-08-18T14:47:46;29.50;83.90
27413;DHT22;14871;52.702;5.230;2022-08-18T14:50:11;29.50;82.90
27413;DHT22;14871;52.702;5.230;2022-08-18T14:52:40;29.50;82.30
27413;DHT22;14871;52.702;5.230;2022-08-18T14:55:08;29.60;83.20
27413;DHT22;14871;52.702;5.230;2022-08-18T14:57:38;29.60;83.50
27413;DHT22;14871;52.702;5.230;2022-08-18T15:00:10;29.50;84.00
27413;DHT22;14871;52.702;5.230;2022-08-18T15:02:38;29.50;81.90
27413;DHT22;14871;52.702;5.230;2022-08-18T15:05:07;29.40;83.20
27413;DHT22;14871;52.702;5.230;2022-08-18T15:07:34;29.30;82.30
27413;DHT22;14871;52.702;5.230;2022-08-18T15:10:07;29.30;83.80
27413;DHT22;14871;52.702;5.230;2022-08-18T15:12:33;29.30;83.30
27413;DHT22;14871;52.702;5.230;2022-08-18T15:14:58;29.20;82.70
27413;DHT22;14871;52.702;5.230;2022-08-18T15:17:24;29.20;84.00
27413;DHT22;14871;52.702;5.230;2022-08-18T15:19:52;29.30;83.80
27413;DHT22;14871;52.702;5.230;2022-08-18T15:22:18;29.40;84.40
27413;DHT22;14871;52.702;5.230;2022-08-18T15:25:03;29.50;84.20
27413;DHT22;14871;52.702;5.230;2022-08-18T15:27:48;29.80;83.60
27413;DHT22;14871;52.702;5.230;2022-08-18T15:30:14;29.90;82.50
27413;DHT22;14871;52.702;5.230;2022-08-18T15:32:46;30.00;81.80
27413;DHT22;14871;52.702;5.230;2022-08-18T15:35:12;29.90;80.80
27413;DHT22;14871;52.702;5.230;2022-08-18T15:37:42;30.00;81.20
27413;DHT22;14871;52.702;5.230;2022-08-18T15:40:22;30.10;81.70
27413;DHT22;14871;52.702;5.230;2022-08-18T15:42:57;30.20;80.70
27413;DHT22;14871;52.702;5.230;2022-08-18T15:45:31;30.20;79.50
27413;DHT22;14871;52.702;5.230;2022-08-18T15:48:00;30.20;80.20
27413;DHT22;14871;52.702;5.230;2022-08-18T15:50:26;30.20;80.20
27413;DHT22;14871;52.702;5.230;2022-08-18T15:53:00;30.20;80.00
27413;DHT22;14871;52.702;5.230;2022-08-18T15:55:30;30.10;80.00
27413;DHT22;14871;52.702;5.230;2022-08-18T15:57:56;30.10;80.50
27413;DHT22;14871;52.702;5.230;2022-08-18T16:00:25;30.10;80.00
27413;DHT22;14871;52.702;5.230;2022-08-18T16:02:56;30.00;80.00
27413;DHT22;14871;52.702;5.230;2022-08-18T16:05:24;30.00;80.40
27413;DHT22;14871;52.702;5.230;2022-08-18T16:07:52;30.00;79.90
27413;DHT22;14871;52.702;5.230;2022-08-18T16:10:19;29.90;79.10
27413;DHT22;14871;52.702;5.230;2022-08-18T16:12:46;30.00;81.30
27413;DHT22;14871;52.702;5.230;2022-08-18T16:15:13;30.00;81.10
27413;DHT22;14871;52.702;5.230;2022-08-18T16:17:39;29.90;80.70
27413;DHT22;14871;52.702;5.230;2022-08-18T16:20:05;29.90;80.70
27413;DHT22;14871;52.702;5.230;2022-08-18T16:22:33;29.80;80.40
27413;DHT22;14871;52.702;5.230;2022-08-18T16:24:59;29.80;81.10
27413;DHT22;14871;52.702;5.230;2022-08-18T16:27:26;29.80;81.40
27413;DHT22;14871;52.702;5.230;2022-08-18T16:29:54;29.80;81.10
27413;DHT22;14871;52.702;5.230;2022-08-18T16:32:21;29.70;80.80
27413;DHT22;14871;52.702;5.230;2022-08-18T16:34:46;29.70;81.40
27413;DHT22;14871;52.702;5.230;2022-08-18T16:37:12;29.60;81.50
27413;DHT22;14871;52.702;5.230;2022-08-18T16:39:37;29.60;82.20
27413;DHT22;14871;52.702;5.230;2022-08-18T16:42:03;29.50;82.10
27413;DHT22;14871;52.702;5.230;2022-08-18T16:44:31;29.50;81.70
27413;DHT22;14871;52.702;5.230;2022-08-18T16:46:57;29.40;81.40
27413;DHT22;14871;52.702;5.230;2022-08-18T16:49:25;29.30;81.60
27413;DHT22;14871;52.702;5.230;2022-08-18T16:51:50;29.10;81.70
27413;DHT22;14871;52.702;5.230;2022-08-18T16:54:16;29.00;82.20
27413;DHT22;14871;52.702;5.230;2022-08-18T16:56:41;29.00;82.60
27413;DHT22;14871;52.702;5.230;2022-08-18T16:59:07;29.00;82.20
27413;DHT22;14871;52.702;5.230;2022-08-18T17:01:51;28.90;82.50
27413;DHT22;14871;52.702;5.230;2022-08-18T17:04:35;28.80;83.20
27413;DHT22;14871;52.702;5.230;2022-08-18T17:07:02;28.90;83.40
27413;DHT22;14871;52.702;5.230;2022-08-18T17:09:29;28.90;83.90
27413;DHT22;14871;52.702;5.230;2022-08-18T17:11:55;28.80;84.30
27413;DHT22;14871;52.702;5.230;2022-08-18T17:14:23;28.70;84.00
27413;DHT22;14871;52.702;5.230;2022-08-18T17:16:51;28.70;83.70
27413;DHT22;14871;52.702;5.230;2022-08-18T17:19:19;28.70;83.90
27413;DHT22;14871;52.702;5.230;2022-08-18T17:21:45;28.70;83.80
27413;DHT22;14871;52.702;5.230;2022-08-18T17:24:11;28.70;84.30
27413;DHT22;14871;52.702;5.230;2022-08-18T17:32:30;28.50;84.10
27413;DHT22;14871;52.702;5.230;2022-08-18T17:35:06;28.40;84.30
27413;DHT22;14871;52.702;5.230;2022-08-18T17:37:33;28.40;84.70
27413;DHT22;14871;52.702;5.230;2022-08-18T17:40:11;28.30;85.30
27413;DHT22;14871;52.702;5.230;2022-08-18T17:42:37;28.20;85.30
27413;DHT22;14871;52.702;5.230;2022-08-18T17:45:07;28.00;86.20
27413;DHT22;14871;52.702;5.230;2022-08-18T17:47:58;28.00;86.30
27413;DHT22;14871;52.702;5.230;2022-08-18T17:50:29;28.00;86.50
27413;DHT22;14871;52.702;5.230;2022-08-18T17:53:16;27.90;86.80
27413;DHT22;14871;52.702;5.230;2022-08-18T17:56:05;27.80;87.10
27413;DHT22;14871;52.702;5.230;2022-08-18T17:58:41;27.80;87.60
27413;DHT22;14871;52.702;5.230;2022-08-18T18:01:11;27.80;87.40
27413;DHT22;14871;52.702;5.230;2022-08-18T18:03:37;27.70;87.40
27413;DHT22;14871;52.702;5.230;2022-08-18T18:06:25;27.60;87.30
27413;DHT22;14871;52.702;5.230;2022-08-18T18:11:30;27.50;87.30
27413;DHT22;14871;52.702;5.230;2022-08-18T18:14:23;27.40;87.90
27413;DHT22;14871;52.702;5.230;2022-08-18T18:17:18;27.30;88.40
27413;DHT22;14871;52.702;5.230;2022-08-18T18:19:48;27.30;89.00
27413;DHT22;14871;52.702;5.230;2022-08-18T18:22:20;27.20;89.30